sensor_id;sensor_type;location;lat;lon;timestamp;temperature;humidity
18805;DHT22;9530;48.930;9.526;2022-12-29T00:01:58;9.60;99.90
18805;DHT22;9530;48.930;9.526;2022-12-29T00:04:25;9.50;99.90
18805;DHT22;9530;48.930;9.526;2022-12-29T00:06:53;9.60;99.90
18805;DHT22;9530;48.930;9.526;2022-12-29T00:09:20;9.60;99.90
18805;DHT22;9530;48.930;9.526;2022-12-29T00:11:47;9.70;99.90
18805;DHT22;9530;48.930;9.526;2022-12-29T00:14:15;9.70;99.90
18805;DHT22;9530;48.930;9.526;2022-12-29T00:16:59;9.70;99.90
18805;DHT22;9530;48.930;9.526;2022-12-29T00:19:26;9.70;99.90
18805;DHT22;9530;48.930;9.526;2022-12-29T00:22:14;9.80;99.90
18805;DHT22;9530;48.930;9.526;2022-12-29T00:24:58;9.90;99.90
18805;DHT22;9530;48.930;9.526;2022-12-29T00:27:43;9.90;99.90
18805;DHT22;9530;48.930;9.526;2022-12-29T00:30:27;9.90;99.90
18805;DHT22;9530;48.930;9.526;2022-12-29T00:33:11;10.00;99.90
18805;DHT22;9530;48.930;9.526;2022-12-29T00:35:58;10.00;99.90
18805;DHT22;9530;48.930;9.526;2022-12-29T00:38:28;10.00;99.90
18805;DHT22;9530;48.930;9.526;2022-12-29T00:41:12;10.00;99.90
18805;DHT22;9530;48.930;9.526;2022-12-29T00:43:57;10.00;99.90
18805;DHT22;9530;48.930;9.526;2022-12-29T00:46:32;9.90;99.90
18805;DHT22;9530;48.930;9.526;2022-12-29T00:48:59;9.90;99.90
18805;DHT22;9530;48.930;9.526;2022-12-29T00:51:44;9.80;99.90
18805;DHT22;9530;48.930;9.526;2022-12-29T00:54:12;9.80;99.90
18805;DHT22;9530;48.930;9.526;2022-12-29T00:56:39;9.80;99.90
18805;DHT22;9530;48.930;9.526;2022-12-29T00:59:07;9.80;99.90
18805;DHT22;9530;48.930;9.526;2022-12-29T01:01:35;9.70;99.90
18805;DHT22;9530;48.930;9.526;2022-12-29T01:04:03;9.70;99.90
18805;DHT22;9530;48.930;9.526;2022-12-29T01:06:30;9.70;99.90
18805;DHT22;9530;48.930;9.526;2022-12-29T01:08:57;9.70;99.90
18805;DHT22;9530;48.930;9.526;2022-12-29T01:11:42;9.70;99.90
18805;DHT22;9530;48.930;9.526;2022-12-29T01:14:09;9.80;99.90
18805;DHT22;9530;48.930;9.526;2022-12-29T01:16:35;9.80;99.90
18805;DHT22;9530;48.930;9.526;2022-12-29T01:19:02;9.90;99.90
18805;DHT22;9530;48.930;9.526;2022-12-29T01:21:30;9.90;99.90
18805;DHT22;9530;48.930;9.526;2022-12-29T01:23:56;10.00;99.90
18805;DHT22;9530;48.930;9.526;2022-12-29T01:26:23;10.00;99.90
18805;DHT22;9530;48.930;9.526;2022-12-29T01:28:51;10.10;99.90
18805;DHT22;9530;48.930;9.526;2022-12-29T01:31:18;10.10;99.90
18805;DHT22;9530;48.930;9.526;2022-12-29T01:33:45;10.10;99.90
18805;DHT22;9530;48.930;9.526;2022-12-29T01:36:13;10.10;99.90
18805;DHT22;9530;48.930;9.526;2022-12-29T01:38:41;10.20;99.90
18805;DHT22;9530;48.930;9.526;2022-12-29T01:41:10;10.30;99.90
18805;DHT22;9530;48.930;9.526;2022-12-29T01:43:40;10.30;99.90
18805;DHT22;9530;48.930;9.526;2022-12-29T01:46:23;10.30;99.90
18805;DHT22;9530;48.930;9.526;2022-12-29T01:48:53;10.30;99.90
18805;DHT22;9530;48.930;9.526;2022-12-29T01:51:23;10.40;99.90
18805;DHT22;9530;48.930;9.526;2022-12-29T01:53:51;10.40;99.90
18805;DHT22;9530;48.930;9.526;2022-12-29T01:56:20;10.50;99.90
18805;DHT22;9530;48.930;9.526;2022-12-29T01:58:49;10.60;99.90
18805;DHT22;9530;48.930;9.526;2022-12-29T02:01:20;10.60;99.90
18805;DHT22;9530;48.930;9.526;2022-12-29T02:03:47;10.60;99.90
18805;DHT22;9530;48.930;9.526;2022-12-29T02:06:17;10.70;99.90
18805;DHT22;9530;48.930;9.526;2022-12-29T02:08:46;10.70;99.90
18805;DHT22;9530;48.930;9.526;2022-12-29T02:11:13;10.70;99.90
18805;DHT22;9530;48.930;9.526;2022-12-29T02:13:41;10.80;99.90
18805;DHT22;9530;48.930;9.526;2022-12-29T02:16:27;10.80;99.90
18805;DHT22;9530;48.930;9.526;2022-12-29T02:19:08;10.80;99.90
18805;DHT22;9530;48.930;9.526;2022-12-29T02:21:51;10.90;99.90
18805;DHT22;9530;48.930;9.526;2022-12-29T02:24:45;10.90;99.90
18805;DHT22;9530;48.930;9.526;2022-12-29T02:27:38;10.90;99.90
18805;DHT22;9530;48.930;9.526;2022-12-29T02:30:15;10.90;99.90
18805;DHT22;9530;48.930;9.526;2022-12-29T02:32:52;10.90;99.90
18805;DHT22;9530;48.930;9.526;2022-12-29T02:35:28;10.90;99.90
18805;DHT22;9530;48.930;9.526;2022-12-29T02:38:03;11.00;99.90
18805;DHT22;9530;48.930;9.526;2022-12-29T02:40:37;11.00;99.90
18805;DHT22;9530;48.930;9.526;2022-12-29T02:43:14;11.00;99.90
18805;DHT22;9530;48.930;9.526;2022-12-29T02:45:47;10.90;99.90
18805;DHT22;9530;48.930;9.526;2022-12-29T02:48:24;10.90;99.90
18805;DHT22;9530;48.930;9.526;2022-12-29T02:50:55;10.90;99.90
18805;DHT22;9530;48.930;9.526;2022-12-29T02:53:23;10.80;99.90
18805;DHT22;9530;48.930;9.526;2022-12-29T02:56:04;10.80;99.90
18805;DHT22;9530;48.930;9.526;2022-12-29T02:58:31;10.90;99.90
18805;DHT22;9530;48.930;9.526;2022-12-29T03:01:07;10.90;99.90
18805;DHT22;9530;48.930;9.526;2022-12-29T03:03:47;10.90;99.90
18805;DHT22;9530;48.930;9.526;2022-12-29T03:06:31;11.00;99.90
18805;DHT22;9530;48.930;9.526;2022-12-29T03:09:05;11.00;99.90
18805;DHT22;9530;48.930;9.526;2022-12-29T03:11:42;10.90;99.90
18805;DHT22;9530;48.930;9.526;2022-12-29T03:14:33;10.90;99.90
18805;DHT22;9530;48.930;9.526;2022-12-29T03:17:26;10.90;99.90
18805;DHT22;9530;48.930;9.526;2022-12-29T03:20:01;10.90;99.90
18805;DHT22;9530;48.930;9.526;2022-12-29T03:22:32;10.90;99.90
18805;DHT22;9530;48.930;9.526;2022-12-29T03:25:02;11.00;99.90
18805;DHT22;9530;48.930;9.526;2022-12-29T03:27:33;11.00;99.90
18805;DHT22;9530;48.930;9.526;2022-12-29T03:30:03;11.00;99.90
18805;DHT22;9530;48.930;9.526;2022-12-29T03:32:33;11.10;99.90
18805;DHT22;9530;48.930;9.526;2022-12-29T03:35:03;11.00;99.90
18805;DHT22;9530;48.930;9.526;2022-12-29T03:37:35;11.10;99.90
18805;DHT22;9530;48.930;9.526;2022-12-29T03:40:04;11.10;99.90
18805;DHT22;9530;48.930;9.526;2022-12-29T03:42:33;11.10;99.90
18805;DHT22;9530;48.930;9.526;2022-12-29T03:45:01;11.10;99.90
18805;DHT22;9530;48.930;9.526;2022-12-29T03:47:28;11.10;99.90
18805;DHT22;9530;48.930;9.526;2022-12-29T03:49:55;11.10;99.90
18805;DHT22;9530;48.930;9.526;2022-12-29T03:52:23;11.10;99.90
18805;DHT22;9530;48.930;9.526;2022-12-29T03:54:50;11.20;99.90
18805;DHT22;9530;48.930;9.526;2022-12-29T03:57:17;11.20;99.90
18805;DHT22;9530;48.930;9.526;2022-12-29T03:59:43;11.20;99.90
18805;DHT22;9530;48.930;9.526;2022-12-29T04:02:10;11.30;99.90
18805;DHT22;9530;48.930;9.526;2022-12-29T04:04:36;11.20;99.90
18805;DHT22;9530;48.930;9.526;2022-12-29T04:07:03;11.20;99.90
18805;DHT22;9530;48.930;9.526;2022-12-29T04:09:31;11.20;99.90
18805;DHT22;9530;48.930;9.526;2022-12-29T04:11:58;11.20;99.90
18805;DHT22;9530;48.930;9.526;2022-12-29T04:14:24;11.10;99.90
18805;DHT22;9530;48.930;9.526;2022-12-29T04:16:51;11.00;99.90
18805;DHT22;9530;48.930;9.526;2022-12-29T04:19:18;11.10;99.90
18805;DHT22;9530;48.930;9.526;2022-12-29T04:21:44;11.10;99.90
18805;DHT22;9530;48.930;9.526;2022-12-29T04:24:11;11.10;99.90
18805;DHT22;9530;48.930;9.526;2022-12-29T04:26:40;11.10;99.90
18805;DHT22;9530;48.930;9.526;2022-12-29T04:29:07;11.10;99.90
18805;DHT22;9530;48.930;9.526;2022-12-29T04:31:34;11.20;99.90
18805;DHT22;9530;48.930;9.526;2022-12-29T04:34:00;11.20;99.90
18805;DHT22;9530;48.930;9.526;2022-12-29T04:36:27;11.10;99.90
18805;DHT22;9530;48.930;9.526;2022-12-29T04:38:54;11.10;99.90
18805;DHT22;9530;48.930;9.526;2022-12-29T04:41:20;11.10;99.90
18805;DHT22;9530;48.930;9.526;2022-12-29T04:43:48;11.10;99.90
18805;DHT22;9530;48.930;9.526;2022-12-29T04:46:15;11.20;99.90
18805;DHT22;9530;48.930;9.526;2022-12-29T04:48:42;11.20;99.90
18805;DHT22;9530;48.930;9.526;2022-12-29T04:51:08;11.20;99.90
18805;DHT22;9530;48.930;9.526;2022-12-29T04:53:35;11.20;99.90
18805;DHT22;9530;48.930;9.526;2022-12-29T04:56:02;11.20;99.90
18805;DHT22;9530;48.930;9.526;2022-12-29T04:58:29;11.10;99.90
18805;DHT22;9530;48.930;9.526;2022-12-29T05:00:57;11.00;99.90
18805;DHT22;9530;48.930;9.526;2022-12-29T05:03:23;10.90;99.90
18805;DHT22;9530;48.930;9.526;2022-12-29T05:05:53;10.80;99.90
18805;DHT22;9530;48.930;9.526;2022-12-29T05:08:19;10.80;99.90
18805;DHT22;9530;48.930;9.526;2022-12-29T05:10:46;10.70;99.90
18805;DHT22;9530;48.930;9.526;2022-12-29T05:13:13;10.80;99.90
18805;DHT22;9530;48.930;9.526;2022-12-29T05:15:40;10.80;99.90
18805;DHT22;9530;48.930;9.526;2022-12-29T05:18:08;10.80;99.90
18805;DHT22;9530;48.930;9.526;2022-12-29T05:20:35;10.70;99.90
18805;DHT22;9530;48.930;9.526;2022-12-29T05:23:01;10.70;99.90
18805;DHT22;9530;48.930;9.526;2022-12-29T05:25:28;10.70;99.90
18805;DHT22;9530;48.930;9.526;2022-12-29T05:27:55;10.70;99.90
18805;DHT22;9530;48.930;9.526;2022-12-29T05:30:21;10.70;99.90
18805;DHT22;9530;48.930;9.526;2022-12-29T05:32:48;10.70;99.90
18805;DHT22;9530;48.930;9.526;2022-12-29T05:35:16;10.70;99.90
18805;DHT22;9530;48.930;9.526;2022-12-29T05:37:43;10.70;99.90
18805;DHT22;9530;48.930;9.526;2022-12-29T05:40:10;10.70;99.90
18805;DHT22;9530;48.930;9.526;2022-12-29T05:42:37;10.70;99.90
18805;DHT22;9530;48.930;9.526;2022-12-29T05:45:05;10.70;99.90
18805;DHT22;9530;48.930;9.526;2022-12-29T05:47:32;10.70;99.90
18805;DHT22;9530;48.930;9.526;2022-12-29T05:50:00;10.70;99.90
18805;DHT22;9530;48.930;9.526;2022-12-29T05:52:28;10.80;99.90
18805;DHT22;9530;48.930;9.526;2022-12-29T05:54:54;10.80;99.90
18805;DHT22;9530;48.930;9.526;2022-12-29T05:57:21;10.80;99.90
18805;DHT22;9530;48.930;9.526;2022-12-29T05:59:48;10.70;99.90
18805;DHT22;9530;48.930;9.526;2022-12-29T06:02:14;10.80;99.90
18805;DHT22;9530;48.930;9.526;2022-12-29T06:04:41;10.80;99.90
18805;DHT22;9530;48.930;9.526;2022-12-29T06:07:07;10.70;99.90
18805;DHT22;9530;48.930;9.526;2022-12-29T06:09:35;10.70;99.90
18805;DHT22;9530;48.930;9.526;2022-12-29T06:12:02;10.70;99.90
18805;DHT22;9530;48.930;9.526;2022-12-29T06:14:29;10.80;99.90
18805;DHT22;9530;48.930;9.526;2022-12-29T06:16:56;10.80;99.90
18805;DHT22;9530;48.930;9.526;2022-12-29T06:19:23;10.80;99.90
18805;DHT22;9530;48.930;9.526;2022-12-29T06:21:49;10.80;99.90
18805;DHT22;9530;48.930;9.526;2022-12-29T06:24:17;10.80;99.90
18805;DHT22;9530;48.930;9.526;2022-12-29T06:26:45;10.70;99.90
18805;DHT22;9530;48.930;9.526;2022-12-29T06:29:12;10.70;99.90
18805;DHT22;9530;48.930;9.526;2022-12-29T06:31:42;10.70;99.90
18805;DHT22;9530;48.930;9.526;2022-12-29T06:34:08;10.70;99.90
18805;DHT22;9530;48.930;9.526;2022-12-29T06:36:35;10.60;99.90
18805;DHT22;9530;48.930;9.526;2022-12-29T06:39:02;10.70;99.90
18805;DHT22;9530;48.930;9.526;2022-12-29T06:41:28;10.70;99.90
18805;DHT22;9530;48.930;9.526;2022-12-29T06:43:56;10.70;99.90
18805;DHT22;9530;48.930;9.526;2022-12-29T06:46:23;10.80;99.90
18805;DHT22;9530;48.930;9.526;2022-12-29T06:48:50;10.90;99.90
18805;DHT22;9530;48.930;9.526;2022-12-29T06:51:16;11.00;99.90
18805;DHT22;9530;48.930;9.526;2022-12-29T06:53:43;11.00;99.90
18805;DHT22;9530;48.930;9.526;2022-12-29T06:56:10;11.00;99.90
18805;DHT22;9530;48.930;9.526;2022-12-29T06:58:36;11.10;99.90
18805;DHT22;9530;48.930;9.526;2022-12-29T07:01:04;11.10;99.90
18805;DHT22;9530;48.930;9.526;2022-12-29T07:03:31;11.10;99.90
18805;DHT22;9530;48.930;9.526;2022-12-29T07:05:58;11.10;99.90
18805;DHT22;9530;48.930;9.526;2022-12-29T07:08:24;11.10;99.90
18805;DHT22;9530;48.930;9.526;2022-12-29T07:10:51;11.10;99.90
18805;DHT22;9530;48.930;9.526;2022-12-29T07:13:18;11.10;99.90
18805;DHT22;9530;48.930;9.526;2022-12-29T07:15:44;11.20;99.90
18805;DHT22;9530;48.930;9.526;2022-12-29T07:18:12;11.20;99.90
18805;DHT22;9530;48.930;9.526;2022-12-29T07:20:39;11.20;99.90
18805;DHT22;9530;48.930;9.526;2022-12-29T07:23:05;11.20;99.90
18805;DHT22;9530;48.930;9.526;2022-12-29T07:25:32;11.20;99.90
18805;DHT22;9530;48.930;9.526;2022-12-29T07:28:00;11.30;99.90
18805;DHT22;9530;48.930;9.526;2022-12-29T07:30:27;11.40;99.90
18805;DHT22;9530;48.930;9.526;2022-12-29T07:32:53;11.40;99.90
18805;DHT22;9530;48.930;9.526;2022-12-29T07:35:21;11.40;99.90
18805;DHT22;9530;48.930;9.526;2022-12-29T07:37:48;11.40;99.90
18805;DHT22;9530;48.930;9.526;2022-12-29T07:40:15;11.50;99.90
18805;DHT22;9530;48.930;9.526;2022-12-29T07:42:42;11.60;99.90
18805;DHT22;9530;48.930;9.526;2022-12-29T07:45:09;11.60;99.90
18805;DHT22;9530;48.930;9.526;2022-12-29T07:47:36;11.70;99.90
18805;DHT22;9530;48.930;9.526;2022-12-29T07:50:03;11.60;99.90
18805;DHT22;9530;48.930;9.526;2022-12-29T07:52:31;11.70;99.90
18805;DHT22;9530;48.930;9.526;2022-12-29T07:54:58;11.70;99.90
18805;DHT22;9530;48.930;9.526;2022-12-29T07:57:25;11.80;99.90
18805;DHT22;9530;48.930;9.526;2022-12-29T07:59:51;11.70;99.90
18805;DHT22;9530;48.930;9.526;2022-12-29T08:02:18;11.70;99.90
18805;DHT22;9530;48.930;9.526;2022-12-29T08:04:45;11.80;99.90
18805;DHT22;9530;48.930;9.526;2022-12-29T08:07:11;11.90;99.90
18805;DHT22;9530;48.930;9.526;2022-12-29T08:09:39;11.90;99.90
18805;DHT22;9530;48.930;9.526;2022-12-29T08:12:09;11.90;99.90
18805;DHT22;9530;48.930;9.526;2022-12-29T08:14:36;11.90;99.90
18805;DHT22;9530;48.930;9.526;2022-12-29T08:17:03;12.00;99.90
18805;DHT22;9530;48.930;9.526;2022-12-29T08:19:29;12.00;99.90
18805;DHT22;9530;48.930;9.526;2022-12-29T08:21:56;12.00;99.90
18805;DHT22;9530;48.930;9.526;2022-12-29T08:24:23;12.00;99.90
18805;DHT22;9530;48.930;9.526;2022-12-29T08:26:50;12.10;99.90
18805;DHT22;9530;48.930;9.526;2022-12-29T08:29:17;12.10;99.90
18805;DHT22;9530;48.930;9.526;2022-12-29T08:31:45;12.10;99.90
18805;DHT22;9530;48.930;9.526;2022-12-29T08:34:11;12.10;99.90
18805;DHT22;9530;48.930;9.526;2022-12-29T08:36:38;12.00;99.90
18805;DHT22;9530;48.930;9.526;2022-12-29T08:39:05;12.10;99.90
18805;DHT22;9530;48.930;9.526;2022-12-29T08:41:31;12.10;99.90
18805;DHT22;9530;48.930;9.526;2022-12-29T08:43:59;12.10;99.90
18805;DHT22;9530;48.930;9.526;2022-12-29T08:46:26;12.20;99.90
18805;DHT22;9530;48.930;9.526;2022-12-29T08:48:53;12.20;99.90
18805;DHT22;9530;48.930;9.526;2022-12-29T08:51:19;12.20;99.90
18805;DHT22;9530;48.930;9.526;2022-12-29T08:53:46;12.30;99.90
18805;DHT22;9530;48.930;9.526;2022-12-29T08:56:13;12.30;99.90
18805;DHT22;9530;48.930;9.526;2022-12-29T08:58:40;12.30;99.90
18805;DHT22;9530;48.930;9.526;2022-12-29T09:01:09;12.40;99.90
18805;DHT22;9530;48.930;9.526;2022-12-29T09:03:36;12.30;99.90
18805;DHT22;9530;48.930;9.526;2022-12-29T09:06:02;12.40;99.90
18805;DHT22;9530;48.930;9.526;2022-12-29T09:08:29;12.40;99.90
18805;DHT22;9530;48.930;9.526;2022-12-29T09:11:05;12.40;99.90
18805;DHT22;9530;48.930;9.526;2022-12-29T09:13:33;12.50;99.90
18805;DHT22;9530;48.930;9.526;2022-12-29T09:16:00;12.60;99.90
18805;DHT22;9530;48.930;9.526;2022-12-29T09:18:28;12.50;99.90
18805;DHT22;9530;48.930;9.526;2022-12-29T09:20:56;12.50;99.90
18805;DHT22;9530;48.930;9.526;2022-12-29T09:23:24;12.60;99.90
18805;DHT22;9530;48.930;9.526;2022-12-29T09:25:51;12.60;99.90
18805;DHT22;9530;48.930;9.526;2022-12-29T09:28:17;12.60;99.90
18805;DHT22;9530;48.930;9.526;2022-12-29T09:30:44;12.70;99.90
18805;DHT22;9530;48.930;9.526;2022-12-29T09:33:11;12.60;99.90
18805;DHT22;9530;48.930;9.526;2022-12-29T09:35:41;12.60;99.90
18805;DHT22;9530;48.930;9.526;2022-12-29T09:38:08;12.60;99.90
18805;DHT22;9530;48.930;9.526;2022-12-29T09:40:35;12.60;99.90
18805;DHT22;9530;48.930;9.526;2022-12-29T09:43:17;12.50;99.90
18805;DHT22;9530;48.930;9.526;2022-12-29T09:45:53;12.50;99.90
18805;DHT22;9530;48.930;9.526;2022-12-29T09:48:24;12.50;99.90
18805;DHT22;9530;48.930;9.526;2022-12-29T09:50:57;12.50;99.90
18805;DHT22;9530;48.930;9.526;2022-12-29T09:53:28;12.50;99.90
18805;DHT22;9530;48.930;9.526;2022-12-29T09:56:00;12.50;99.90
18805;DHT22;9530;48.930;9.526;2022-12-29T09:58:30;12.50;99.90
18805;DHT22;9530;48.930;9.526;2022-12-29T10:01:02;12.60;99.90
18805;DHT22;9530;48.930;9.526;2022-12-29T10:03:40;12.60;99.90
18805;DHT22;9530;48.930;9.526;2022-12-29T10:06:15;12.70;99.90
18805;DHT22;9530;48.930;9.526;2022-12-29T10:08:48;12.80;99.90
18805;DHT22;9530;48.930;9.526;2022-12-29T10:11:29;12.90;99.90
18805;DHT22;9530;48.930;9.526;2022-12-29T10:14:10;13.00;99.90
18805;DHT22;9530;48.930;9.526;2022-12-29T10:16:45;13.10;99.90
18805;DHT22;9530;48.930;9.526;2022-12-29T10:19:25;13.30;99.90
18805;DHT22;9530;48.930;9.526;2022-12-29T10:22:09;13.30;99.90
18805;DHT22;9530;48.930;9.526;2022-12-29T10:24:39;13.20;99.90
18805;DHT22;9530;48.930;9.526;2022-12-29T10:27:10;13.20;99.90
18805;DHT22;9530;48.930;9.526;2022-12-29T10:29:43;13.10;99.90
18805;DHT22;9530;48.930;9.526;2022-12-29T10:32:22;13.00;99.90
18805;DHT22;9530;48.930;9.526;2022-12-29T10:34:52;13.00;99.90
18805;DHT22;9530;48.930;9.526;2022-12-29T10:37:29;12.80;99.90
18805;DHT22;9530;48.930;9.526;2022-12-29T10:39:58;12.90;99.90
18805;DHT22;9530;48.930;9.526;2022-12-29T10:42:27;12.80;99.90
18805;DHT22;9530;48.930;9.526;2022-12-29T10:44:54;12.80;99.90
18805;DHT22;9530;48.930;9.526;2022-12-29T10:47:24;12.80;99.90
18805;DHT22;9530;48.930;9.526;2022-12-29T10:49:52;12.80;99.90
18805;DHT22;9530;48.930;9.526;2022-12-29T10:52:20;12.90;99.90
18805;DHT22;9530;48.930;9.526;2022-12-29T10:54:52;12.80;99.90
18805;DHT22;9530;48.930;9.526;2022-12-29T10:57:26;12.70;99.90
18805;DHT22;9530;48.930;9.526;2022-12-29T10:59:53;12.70;99.90
18805;DHT22;9530;48.930;9.526;2022-12-29T11:02:37;12.70;99.90
18805;DHT22;9530;48.930;9.526;2022-12-29T11:05:16;12.70;99.90
18805;DHT22;9530;48.930;9.526;2022-12-29T11:07:47;12.60;99.90
18805;DHT22;9530;48.930;9.526;2022-12-29T11:10:29;12.60;99.90
18805;DHT22;9530;48.930;9.526;2022-12-29T11:12:58;12.60;99.90
18805;DHT22;9530;48.930;9.526;2022-12-29T11:15:25;12.60;99.90
18805;DHT22;9530;48.930;9.526;2022-12-29T11:17:56;12.70;99.90
18805;DHT22;9530;48.930;9.526;2022-12-29T11:20:32;12.70;99.90
18805;DHT22;9530;48.930;9.526;2022-12-29T11:22:59;12.60;99.90
18805;DHT22;9530;48.930;9.526;2022-12-29T11:25:28;12.70;99.90
18805;DHT22;9530;48.930;9.526;2022-12-29T11:27:56;12.70;99.90
18805;DHT22;9530;48.930;9.526;2022-12-29T11:30:24;12.80;99.90
18805;DHT22;9530;48.930;9.526;2022-12-29T11:32:52;12.90;99.90
18805;DHT22;9530;48.930;9.526;2022-12-29T11:35:32;13.00;99.90
18805;DHT22;9530;48.930;9.526;2022-12-29T11:38:00;13.10;99.90
18805;DHT22;9530;48.930;9.526;2022-12-29T11:40:29;13.00;99.90
18805;DHT22;9530;48.930;9.526;2022-12-29T11:42:58;13.10;99.90
18805;DHT22;9530;48.930;9.526;2022-12-29T11:45:29;13.00;99.90
18805;DHT22;9530;48.930;9.526;2022-12-29T11:48:00;13.10;99.90
18805;DHT22;9530;48.930;9.526;2022-12-29T11:50:30;13.00;99.90
18805;DHT22;9530;48.930;9.526;2022-12-29T11:52:59;13.00;99.90
18805;DHT22;9530;48.930;9.526;2022-12-29T11:55:29;12.90;99.90
18805;DHT22;9530;48.930;9.526;2022-12-29T11:57:59;12.80;99.90
18805;DHT22;9530;48.930;9.526;2022-12-29T12:00:28;12.80;99.90
18805;DHT22;9530;48.930;9.526;2022-12-29T12:02:58;12.70;99.90
18805;DHT22;9530;48.930;9.526;2022-12-29T12:05:33;12.70;99.90
18805;DHT22;9530;48.930;9.526;2022-12-29T12:08:07;12.60;99.90
18805;DHT22;9530;48.930;9.526;2022-12-29T12:10:39;12.60;99.90
18805;DHT22;9530;48.930;9.526;2022-12-29T12:13:18;12.50;99.90
18805;DHT22;9530;48.930;9.526;2022-12-29T12:15:50;12.50;99.90
18805;DHT22;9530;48.930;9.526;2022-12-29T12:18:21;12.40;99.90
18805;DHT22;9530;48.930;9.526;2022-12-29T12:20:54;12.40;99.90
18805;DHT22;9530;48.930;9.526;2022-12-29T12:23:31;12.30;99.90
18805;DHT22;9530;48.930;9.526;2022-12-29T12:26:10;12.30;99.90
18805;DHT22;9530;48.930;9.526;2022-12-29T12:28:43;12.30;99.90
18805;DHT22;9530;48.930;9.526;2022-12-29T12:31:17;12.20;99.90
18805;DHT22;9530;48.930;9.526;2022-12-29T12:33:48;12.10;99.90
18805;DHT22;9530;48.930;9.526;2022-12-29T12:36:36;11.90;99.90
18805;DHT22;9530;48.930;9.526;2022-12-29T12:39:10;11.90;99.90
18805;DHT22;9530;48.930;9.526;2022-12-29T12:41:48;11.90;99.90
18805;DHT22;9530;48.930;9.526;2022-12-29T12:44:25;11.80;99.90
18805;DHT22;9530;48.930;9.526;2022-12-29T12:47:16;11.70;99.90
18805;DHT22;9530;48.930;9.526;2022-12-29T12:53:20;11.90;99.90
18805;DHT22;9530;48.930;9.526;2022-12-29T12:56:00;11.90;99.90
18805;DHT22;9530;48.930;9.526;2022-12-29T12:58:36;11.90;99.90
18805;DHT22;9530;48.930;9.526;2022-12-29T13:01:18;11.80;99.90
18805;DHT22;9530;48.930;9.526;2022-12-29T13:04:03;11.80;99.90
18805;DHT22;9530;48.930;9.526;2022-12-29T13:06:41;11.90;99.90
18805;DHT22;9530;48.930;9.526;2022-12-29T13:09:37;11.90;99.90
18805;DHT22;9530;48.930;9.526;2022-12-29T13:12:18;11.90;99.90
18805;DHT22;9530;48.930;9.526;2022-12-29T13:14:58;12.00;99.90
18805;DHT22;9530;48.930;9.526;2022-12-29T13:17:33;12.10;99.90
18805;DHT22;9530;48.930;9.526;2022-12-29T13:20:14;12.10;99.90
18805;DHT22;9530;48.930;9.526;2022-12-29T13:22:48;12.10;99.90
18805;DHT22;9530;48.930;9.526;2022-12-29T13:25:27;12.20;99.90
18805;DHT22;9530;48.930;9.526;2022-12-29T13:28:00;12.30;99.90
18805;DHT22;9530;48.930;9.526;2022-12-29T13:30:34;12.40;99.90
18805;DHT22;9530;48.930;9.526;2022-12-29T13:33:10;12.40;99.90
18805;DHT22;9530;48.930;9.526;2022-12-29T13:35:59;12.40;99.90
18805;DHT22;9530;48.930;9.526;2022-12-29T13:38:32;12.40;99.90
18805;DHT22;9530;48.930;9.526;2022-12-29T13:41:03;12.50;99.90
18805;DHT22;9530;48.930;9.526;2022-12-29T13:43:33;12.50;99.90
18805;DHT22;9530;48.930;9.526;2022-12-29T13:46:05;12.50;99.90
18805;DHT22;9530;48.930;9.526;2022-12-29T13:48:37;12.40;99.90
18805;DHT22;9530;48.930;9.526;2022-12-29T13:51:06;12.40;99.90
18805;DHT22;9530;48.930;9.526;2022-12-29T13:53:40;12.30;99.90
18805;DHT22;9530;48.930;9.526;2022-12-29T13:56:14;12.30;99.90
18805;DHT22;9530;48.930;9.526;2022-12-29T13:58:50;12.30;99.90
18805;DHT22;9530;48.930;9.526;2022-12-29T14:01:27;12.20;99.90
18805;DHT22;9530;48.930;9.526;2022-12-29T14:03:56;12.10;99.90
18805;DHT22;9530;48.930;9.526;2022-12-29T14:06:24;12.10;99.90
18805;DHT22;9530;48.930;9.526;2022-12-29T14:08:54;12.10;99.90
18805;DHT22;9530;48.930;9.526;2022-12-29T14:11:23;12.10;99.90
18805;DHT22;9530;48.930;9.526;2022-12-29T14:13:52;12.00;99.90
18805;DHT22;9530;48.930;9.526;2022-12-29T14:16:29;12.00;99.90
18805;DHT22;9530;48.930;9.526;2022-12-29T14:19:04;12.10;99.90
18805;DHT22;9530;48.930;9.526;2022-12-29T14:21:32;12.10;99.90
18805;DHT22;9530;48.930;9.526;2022-12-29T14:27:42;12.00;99.90
18805;DHT22;9530;48.930;9.526;2022-12-29T14:30:46;12.00;99.90
18805;DHT22;9530;48.930;9.526;2022-12-29T14:33:15;12.00;99.90
18805;DHT22;9530;48.930;9.526;2022-12-29T14:35:43;12.00;99.90
18805;DHT22;9530;48.930;9.526;2022-12-29T14:38:22;11.90;99.90
18805;DHT22;9530;48.930;9.526;2022-12-29T14:40:50;11.90;99.90
18805;DHT22;9530;48.930;9.526;2022-12-29T14:43:21;11.90;99.90
18805;DHT22;9530;48.930;9.526;2022-12-29T14:45:53;11.90;99.90
18805;DHT22;9530;48.930;9.526;2022-12-29T14:48:35;11.90;99.90
18805;DHT22;9530;48.930;9.526;2022-12-29T14:51:17;11.90;99.90
18805;DHT22;9530;48.930;9.526;2022-12-29T14:53:46;11.90;99.90
18805;DHT22;9530;48.930;9.526;2022-12-29T14:56:15;11.90;99.90
18805;DHT22;9530;48.930;9.526;2022-12-29T14:58:47;11.80;99.90
18805;DHT22;9530;48.930;9.526;2022-12-29T15:01:23;11.90;99.90
18805;DHT22;9530;48.930;9.526;2022-12-29T15:03:55;11.80;99.90
18805;DHT22;9530;48.930;9.526;2022-12-29T15:06:24;11.80;99.90
18805;DHT22;9530;48.930;9.526;2022-12-29T15:08:55;11.80;99.90
18805;DHT22;9530;48.930;9.526;2022-12-29T15:11:41;11.70;99.90
18805;DHT22;9530;48.930;9.526;2022-12-29T15:14:30;11.70;99.90
18805;DHT22;9530;48.930;9.526;2022-12-29T15:16:57;11.70;99.90
18805;DHT22;9530;48.930;9.526;2022-12-29T15:19:26;11.60;99.90
18805;DHT22;9530;48.930;9.526;2022-12-29T15:21:54;11.60;99.90
18805;DHT22;9530;48.930;9.526;2022-12-29T15:24:21;11.70;99.90
18805;DHT22;9530;48.930;9.526;2022-12-29T15:26:50;11.60;99.90
18805;DHT22;9530;48.930;9.526;2022-12-29T15:29:31;11.60;99.90
18805;DHT22;9530;48.930;9.526;2022-12-29T15:32:00;11.60;99.90
18805;DHT22;9530;48.930;9.526;2022-12-29T15:34:31;11.60;99.90
18805;DHT22;9530;48.930;9.526;2022-12-29T15:36:57;11.50;99.90
18805;DHT22;9530;48.930;9.526;2022-12-29T15:39:28;11.50;99.90
18805;DHT22;9530;48.930;9.526;2022-12-29T15:41:59;11.50;99.90
18805;DHT22;9530;48.930;9.526;2022-12-29T15:44:32;11.60;99.90
18805;DHT22;9530;48.930;9.526;2022-12-29T15:47:03;11.60;99.90
18805;DHT22;9530;48.930;9.526;2022-12-29T15:49:31;11.60;99.90
18805;DHT22;9530;48.930;9.526;2022-12-29T15:51:58;11.60;99.90
18805;DHT22;9530;48.930;9.526;2022-12-29T15:54:30;11.60;99.90
18805;DHT22;9530;48.930;9.526;2022-12-29T15:56:58;11.60;99.90
18805;DHT22;9530;48.930;9.526;2022-12-29T15:59:26;11.60;99.90
18805;DHT22;9530;48.930;9.526;2022-12-29T16:01:54;11.60;99.90
18805;DHT22;9530;48.930;9.526;2022-12-29T16:04:21;11.30;99.90
18805;DHT22;9530;48.930;9.526;2022-12-29T16:06:56;10.80;99.90
18805;DHT22;9530;48.930;9.526;2022-12-29T16:09:31;10.40;99.90
18805;DHT22;9530;48.930;9.526;2022-12-29T16:12:00;10.10;99.90
18805;DHT22;9530;48.930;9.526;2022-12-29T16:14:31;9.90;99.90
18805;DHT22;9530;48.930;9.526;2022-12-29T16:17:01;9.70;99.90
18805;DHT22;9530;48.930;9.526;2022-12-29T16:19:32;9.60;99.90